Hanover, New Hampshire
Current Conditions -  °F | °C
As of 4:23 AM on Sunday 21 Dec 2014 (Local Time) from KLEB Reporting Station
Overcast Overcast  
Wind Chill: 24°   Ceiling: 2900
Heat Index: 24°   Visibility: 10mi
Dew Point: 18°   Wind: 0mph
Humidity: 77%   Direction: NA
Pressure: 30.29"   Gusts: NA
Location:  43.7°N, 72.29°W
Report Text: KLEB 210923Z AUTO 00000KT 10SM OVC029 M04/M08 A3029 RMK AO2 T10441078
Loading
Personal Weather Stations






























Interactive Weather Map New forecast layout! Learn more

10-Day Weather Forecast

Advertisements
Track Severe Weather on mobile